Terminal Aerodrome Forecast
Issued by NWS

Home | Current Version | Previous Version | Text Only | Print | Product List | Glossary On
Versions: 1 2 3 4 5 6 7 8 9 10 11 12 13 14
000
FTUS45 KFGZ 231739
TAFSEZ
TAF
KSEZ 231739Z 2318/2418 25006KT P6SM SCT080 SCT110
      TEMPO 2320/2324 VRB15G25KT 4SM TSRA BKN060CB
     FM240000 VRB05KT P6SM VCSH BKN050 OVC070
      TEMPO 2402/2406 5SM SHRA BKN050=

USA.gov is the U.S. government's official web portal to all federal, state and local government web resources and services.